createdAt,value
2024-03-08T00:00:44.295Z,28.63
2024-03-08T00:03:11.492Z,28.80
2024-03-08T00:05:39.827Z,28.73
2024-03-08T00:08:10.804Z,27.83
2024-03-08T00:10:37.551Z,28.00
2024-03-08T00:13:05.382Z,31.40
2024-03-08T00:15:33.523Z,30.10
2024-03-08T00:18:00.393Z,30.95
2024-03-08T00:20:27.306Z,29.73
2024-03-08T00:22:54.245Z,30.00
2024-03-08T00:25:21.252Z,29.17
2024-03-08T00:27:50.692Z,30.23
2024-03-08T00:30:17.896Z,30.10
2024-03-08T00:32:44.783Z,30.30
2024-03-08T00:35:13.392Z,31.38
2024-03-08T00:37:40.391Z,32.20
2024-03-08T00:40:10.191Z,30.08
2024-03-08T00:42:37.160Z,30.87
2024-03-08T00:45:04.266Z,31.05
2024-03-08T00:47:31.205Z,31.15
2024-03-08T00:49:58.599Z,31.38
2024-03-08T00:52:25.432Z,31.20
2024-03-08T00:54:52.250Z,29.55
2024-03-08T00:57:19.008Z,30.35
2024-03-08T00:59:45.855Z,31.05
2024-03-08T01:02:12.607Z,29.58
2024-03-08T01:04:39.377Z,30.77
2024-03-08T01:07:06.787Z,31.98
2024-03-08T01:09:33.545Z,30.45
2024-03-08T01:12:00.475Z,31.00
2024-03-08T01:14:27.552Z,33.30
2024-03-08T01:16:54.299Z,30.90
2024-03-08T01:19:21.087Z,31.77
2024-03-08T01:21:47.822Z,32.30
2024-03-08T01:24:14.672Z,31.52
2024-03-08T01:26:41.504Z,32.03
2024-03-08T01:29:09.203Z,31.08
2024-03-08T01:31:37.801Z,31.80
2024-03-08T01:34:04.814Z,33.58
2024-03-08T01:36:31.679Z,33.72
2024-03-08T01:38:58.857Z,33.30
2024-03-08T01:41:25.754Z,31.98
2024-03-08T01:43:54.107Z,32.75
2024-03-08T01:46:23.340Z,32.47
2024-03-08T01:48:52.627Z,32.22
2024-03-08T01:51:20.960Z,31.92
2024-03-08T01:53:49.098Z,33.17
2024-03-08T01:56:16.297Z,33.35
2024-03-08T01:58:48.411Z,33.40
2024-03-08T02:01:16.583Z,34.60
2024-03-08T02:03:45.681Z,34.33
2024-03-08T02:06:15.469Z,34.55
2024-03-08T02:08:44.935Z,33.38
2024-03-08T02:11:12.323Z,34.38
2024-03-08T02:13:39.130Z,36.70
2024-03-08T02:16:09.038Z,33.63
2024-03-08T02:18:36.400Z,33.70
2024-03-08T02:21:05.676Z,34.95
2024-03-08T02:23:33.869Z,36.55
2024-03-08T02:26:00.703Z,36.80
2024-03-08T02:28:27.627Z,35.97
2024-03-08T02:30:57.571Z,37.95
2024-03-08T02:33:25.922Z,36.60
2024-03-08T02:35:53.017Z,38.40
2024-03-08T02:38:21.849Z,35.47
2024-03-08T02:40:50.902Z,37.58
2024-03-08T02:43:19.456Z,37.47
2024-03-08T02:45:46.769Z,37.83
2024-03-08T02:48:15.328Z,37.95
2024-03-08T02:50:43.754Z,37.95
2024-03-08T02:53:11.237Z,38.85
2024-03-08T02:55:40.317Z,37.30
2024-03-08T02:58:09.737Z,39.58
2024-03-08T03:00:36.814Z,39.33
2024-03-08T03:03:04.363Z,37.47
2024-03-08T03:05:31.512Z,38.00
2024-03-08T03:07:59.342Z,39.50
2024-03-08T03:10:26.925Z,38.92
2024-03-08T03:12:53.930Z,40.85
2024-03-08T03:15:21.222Z,39.95
2024-03-08T03:17:49.186Z,40.35
2024-03-08T03:20:23.697Z,41.42
2024-03-08T03:22:54.217Z,41.83
2024-03-08T03:25:24.690Z,41.15
2024-03-08T03:27:51.709Z,41.53
2024-03-08T03:30:24.647Z,40.90
2024-03-08T03:32:52.434Z,42.85
2024-03-08T03:35:21.601Z,43.22
2024-03-08T03:38:07.151Z,41.92
2024-03-08T03:40:38.022Z,41.63
2024-03-08T03:45:36.908Z,44.53
2024-03-08T03:48:07.875Z,43.60
2024-03-08T03:50:36.193Z,46.42
2024-03-08T03:53:09.303Z,45.63
2024-03-08T03:55:38.079Z,47.45
2024-03-08T03:58:05.127Z,47.10
2024-03-08T04:00:31.891Z,47.35
2024-03-08T04:03:01.577Z,48.85
2024-03-08T04:05:28.702Z,47.30
2024-03-08T04:07:56.573Z,47.90
2024-03-08T04:10:23.557Z,47.80
2024-03-08T04:12:50.339Z,45.65
2024-03-08T04:15:17.283Z,46.00
2024-03-08T04:17:44.244Z,45.60
2024-03-08T04:20:11.738Z,46.17
2024-03-08T04:22:39.091Z,46.15
2024-03-08T04:25:06.882Z,45.85
2024-03-08T04:27:34.332Z,45.80
2024-03-08T04:30:02.802Z,45.67
2024-03-08T04:32:33.475Z,45.95
2024-03-08T04:35:02.663Z,45.75
2024-03-08T04:37:30.926Z,46.90
2024-03-08T04:39:58.214Z,46.95
2024-03-08T04:42:26.246Z,47.25
2024-03-08T04:44:54.811Z,46.90
2024-03-08T04:47:21.658Z,46.22
2024-03-08T04:49:48.468Z,47.65
2024-03-08T04:52:15.226Z,46.08
2024-03-08T04:54:41.954Z,45.80
2024-03-08T04:57:09.848Z,46.17
2024-03-08T04:59:37.383Z,46.58
2024-03-08T05:02:05.095Z,46.13
2024-03-08T05:04:31.801Z,47.00
2024-03-08T05:06:58.702Z,45.83
2024-03-08T05:09:25.439Z,44.90
2024-03-08T05:11:52.408Z,44.58
2024-03-08T05:14:21.385Z,43.95
2024-03-08T05:16:51.332Z,46.38
2024-03-08T05:19:19.500Z,46.80
2024-03-08T05:21:50.485Z,45.17
2024-03-08T05:24:19.113Z,43.15
2024-03-08T05:26:47.465Z,43.17
2024-03-08T05:29:15.411Z,43.13
2024-03-08T05:31:49.495Z,45.05
2024-03-08T05:34:20.557Z,43.15
2024-03-08T05:36:47.849Z,42.10
2024-03-08T05:39:15.482Z,41.38
2024-03-08T05:41:45.225Z,40.83
2024-03-08T05:44:12.554Z,40.50
2024-03-08T05:46:39.627Z,39.97
2024-03-08T05:49:07.582Z,40.22
2024-03-08T05:51:38.073Z,39.97
2024-03-08T05:54:14.607Z,40.60
2024-03-08T05:56:44.428Z,37.33
2024-03-08T05:59:12.049Z,38.13
2024-03-08T06:01:39.096Z,40.78
2024-03-08T06:04:05.981Z,39.47
2024-03-08T06:06:32.781Z,40.42
2024-03-08T06:09:00.309Z,40.58
2024-03-08T06:11:31.715Z,40.15
2024-03-08T06:14:00.995Z,41.00
2024-03-08T06:16:31.257Z,39.55
2024-03-08T06:18:58.650Z,40.57
2024-03-08T06:21:28.236Z,38.25
2024-03-08T06:24:02.015Z,37.20
2024-03-08T06:26:30.777Z,36.92
2024-03-08T06:28:58.494Z,39.20
2024-03-08T06:31:25.519Z,38.95
2024-03-08T06:33:52.446Z,38.92
2024-03-08T06:36:26.010Z,38.40
2024-03-08T06:38:53.128Z,38.00
2024-03-08T06:41:20.116Z,37.13
2024-03-08T06:43:48.052Z,38.95
2024-03-08T06:46:16.515Z,38.13
2024-03-08T06:48:43.599Z,39.03
2024-03-08T06:51:12.143Z,36.95
2024-03-08T06:53:39.940Z,37.95
2024-03-08T06:56:08.818Z,38.80
2024-03-08T06:58:35.541Z,38.58
2024-03-08T07:01:05.181Z,40.25
2024-03-08T07:03:33.430Z,38.70
2024-03-08T07:06:00.598Z,38.97
2024-03-08T07:08:31.196Z,40.40
2024-03-08T07:10:59.705Z,38.05
2024-03-08T07:13:28.430Z,37.67
2024-03-08T07:15:56.255Z,38.17
2024-03-08T07:18:23.375Z,37.45
2024-03-08T07:20:50.517Z,36.50
2024-03-08T07:23:36.013Z,39.03
2024-03-08T07:26:02.943Z,38.53
2024-03-08T07:28:31.569Z,38.53
2024-03-08T07:31:14.180Z,39.30
2024-03-08T07:33:41.451Z,38.65
2024-03-08T07:36:09.548Z,35.00
2024-03-08T07:38:36.439Z,37.80
2024-03-08T07:41:05.425Z,35.92
2024-03-08T07:43:33.797Z,36.72
2024-03-08T07:46:00.643Z,35.50
2024-03-08T07:48:28.193Z,35.60
2024-03-08T07:50:55.134Z,36.85
2024-03-08T07:53:21.958Z,37.72
2024-03-08T07:55:48.769Z,34.90
2024-03-08T07:58:15.698Z,36.67
2024-03-08T08:00:44.079Z,36.60
2024-03-08T08:03:11.198Z,37.80
2024-03-08T08:05:39.910Z,36.38
2024-03-08T08:08:08.692Z,36.45
2024-03-08T08:10:35.604Z,35.72
2024-03-08T08:13:04.045Z,36.05
2024-03-08T08:15:32.070Z,37.47
2024-03-08T08:17:59.176Z,36.95
2024-03-08T08:20:27.201Z,34.70
2024-03-08T08:22:55.637Z,35.72
2024-03-08T08:25:25.408Z,38.00
2024-03-08T08:27:52.240Z,36.40
2024-03-08T08:30:19.063Z,35.10
2024-03-08T08:32:45.942Z,34.38
2024-03-08T08:35:13.687Z,34.15
2024-03-08T08:37:40.959Z,33.75
2024-03-08T08:40:11.794Z,35.45
2024-03-08T08:42:39.019Z,34.40
2024-03-08T08:45:15.937Z,34.85
2024-03-08T08:47:46.339Z,35.70
2024-03-08T08:50:13.798Z,33.40
2024-03-08T08:52:41.563Z,32.08
2024-03-08T08:55:08.853Z,33.60
2024-03-08T08:57:36.449Z,33.38
2024-03-08T09:00:09.212Z,34.97
2024-03-08T09:02:36.221Z,31.58
2024-03-08T09:05:03.518Z,34.58
2024-03-08T09:07:31.173Z,31.38
2024-03-08T09:09:59.866Z,31.25
2024-03-08T09:12:27.184Z,32.13
2024-03-08T09:14:54.008Z,32.65
2024-03-08T09:17:23.709Z,31.17
2024-03-08T09:19:51.121Z,32.90
2024-03-08T09:22:19.540Z,32.15
2024-03-08T09:24:47.036Z,31.73
2024-03-08T09:27:14.931Z,29.95
2024-03-08T09:29:41.742Z,31.67
2024-03-08T09:32:08.683Z,30.98
2024-03-08T09:34:37.794Z,32.13
2024-03-08T09:37:05.654Z,31.40
2024-03-08T09:39:34.770Z,31.67
2024-03-08T09:42:02.930Z,32.10
2024-03-08T09:44:32.876Z,33.60
2024-03-08T09:47:00.880Z,33.67
2024-03-08T09:49:27.818Z,32.92
2024-03-08T09:51:54.829Z,31.85
2024-03-08T09:54:25.726Z,31.25
2024-03-08T09:56:53.093Z,31.77
2024-03-08T09:59:28.622Z,30.38
2024-03-08T10:02:00.018Z,32.13
2024-03-08T10:04:29.520Z,30.13
2024-03-08T10:06:57.999Z,32.97
2024-03-08T10:09:27.114Z,33.70
2024-03-08T10:12:00.569Z,31.30
2024-03-08T10:14:27.937Z,31.27
2024-03-08T10:16:55.161Z,31.42
2024-03-08T10:19:24.752Z,30.83
2024-03-08T10:24:25.116Z,31.88
2024-03-08T10:27:05.731Z,30.35
2024-03-08T10:29:33.755Z,29.67
2024-03-08T10:32:01.244Z,29.75
2024-03-08T10:34:28.287Z,28.45
2024-03-08T10:37:00.591Z,29.30
2024-03-08T10:39:28.686Z,31.58
2024-03-08T10:42:02.764Z,30.83
2024-03-08T10:44:45.017Z,30.35
2024-03-08T10:47:26.357Z,28.27
2024-03-08T10:50:05.268Z,29.58
2024-03-08T10:52:33.847Z,29.38
2024-03-08T10:55:03.131Z,28.95
2024-03-08T10:57:29.925Z,29.10
2024-03-08T10:59:59.851Z,29.75
2024-03-08T11:02:28.536Z,30.85
2024-03-08T11:04:57.725Z,28.95
2024-03-08T11:07:28.705Z,30.50
2024-03-08T11:12:30.837Z,29.75
2024-03-08T11:15:02.278Z,28.25
2024-03-08T11:17:33.053Z,28.42
2024-03-08T11:20:03.176Z,28.45
2024-03-08T11:22:33.869Z,29.45
2024-03-08T11:25:04.121Z,29.17
2024-03-08T11:27:32.281Z,28.97
2024-03-08T11:30:14.087Z,27.77
2024-03-08T11:32:47.329Z,28.30
2024-03-08T11:35:22.150Z,26.92
2024-03-08T11:37:49.414Z,26.88
2024-03-08T11:40:21.164Z,26.88
2024-03-08T11:42:49.655Z,26.10
2024-03-08T11:45:18.483Z,28.00
2024-03-08T11:47:48.790Z,27.40
2024-03-08T11:50:16.334Z,27.88
2024-03-08T11:52:44.566Z,25.98
2024-03-08T11:55:13.932Z,26.67
2024-03-08T11:57:40.952Z,26.90
2024-03-08T12:00:22.518Z,26.33
2024-03-08T12:03:05.085Z,25.25
2024-03-08T12:05:32.492Z,27.65
2024-03-08T12:08:02.819Z,28.30
2024-03-08T12:10:30.107Z,28.90
2024-03-08T12:13:00.688Z,28.33
2024-03-08T12:15:29.460Z,27.95
2024-03-08T12:17:57.200Z,29.25
2024-03-08T12:20:32.410Z,29.00
2024-03-08T12:23:00.099Z,28.17
2024-03-08T12:25:37.606Z,25.77
2024-03-08T12:28:19.737Z,25.83
2024-03-08T12:30:55.712Z,26.35
2024-03-08T12:33:23.446Z,26.10
2024-03-08T12:35:55.584Z,25.13
2024-03-08T12:38:27.148Z,26.40
2024-03-08T12:41:00.453Z,24.42
2024-03-08T12:43:31.358Z,25.15
2024-03-08T12:45:58.971Z,23.80
2024-03-08T12:48:26.054Z,24.10
2024-03-08T12:50:53.318Z,24.08
2024-03-08T12:53:20.433Z,23.80
2024-03-08T12:55:47.269Z,23.98
2024-03-08T12:58:14.208Z,23.63
2024-03-08T13:00:44.219Z,24.05
2024-03-08T13:03:12.160Z,23.85
2024-03-08T13:05:41.134Z,23.45
2024-03-08T13:08:14.330Z,22.63
2024-03-08T13:10:44.566Z,23.00
2024-03-08T13:13:13.210Z,23.70
2024-03-08T13:15:42.120Z,24.65
2024-03-08T13:18:10.334Z,23.88
2024-03-08T13:20:43.491Z,24.40
2024-03-08T13:23:14.717Z,23.58
2024-03-08T13:25:42.422Z,21.20
2024-03-08T13:28:10.029Z,22.13
2024-03-08T13:30:37.026Z,22.05
2024-03-08T13:33:06.339Z,21.75
2024-03-08T13:35:33.831Z,22.17
2024-03-08T13:38:02.093Z,23.17
2024-03-08T13:40:28.922Z,21.48
2024-03-08T13:42:55.694Z,22.55
2024-03-08T13:45:25.242Z,21.98
2024-03-08T13:47:52.741Z,21.20
2024-03-08T13:50:22.697Z,22.35
2024-03-08T13:52:55.541Z,20.88
2024-03-08T13:55:23.660Z,21.05
2024-03-08T13:57:52.600Z,21.20
2024-03-08T14:00:23.620Z,21.52
2024-03-08T14:05:17.518Z,18.85
2024-03-08T14:07:47.538Z,19.55
2024-03-08T14:10:14.600Z,18.57
2024-03-08T14:12:41.391Z,19.63
2024-03-08T14:15:08.515Z,19.23
2024-03-08T14:17:35.279Z,20.05
2024-03-08T14:20:02.145Z,20.20
2024-03-08T14:22:28.943Z,19.52
2024-03-08T14:24:57.097Z,19.58
2024-03-08T14:27:24.223Z,19.42
2024-03-08T14:29:51.033Z,20.27
2024-03-08T14:32:20.811Z,20.33
2024-03-08T14:34:48.795Z,18.45
2024-03-08T14:37:15.964Z,18.85
2024-03-08T14:39:42.740Z,19.23
2024-03-08T14:42:14.279Z,18.92
2024-03-08T14:44:41.029Z,19.30
2024-03-08T14:47:07.909Z,18.85
2024-03-08T14:49:37.436Z,19.27
2024-03-08T14:52:15.711Z,20.00
2024-03-08T14:54:42.527Z,17.95
2024-03-08T14:57:09.298Z,20.08
2024-03-08T14:59:39.153Z,18.95
2024-03-08T15:02:08.493Z,17.77
2024-03-08T15:04:36.833Z,18.85
2024-03-08T15:07:06.732Z,18.35
2024-03-08T15:09:40.536Z,19.30
2024-03-08T15:12:10.559Z,19.25
2024-03-08T15:14:41.386Z,20.47
2024-03-08T15:19:39.133Z,18.90
2024-03-08T15:22:05.866Z,19.15
2024-03-08T15:24:32.588Z,19.33
2024-03-08T15:27:00.588Z,18.73
2024-03-08T15:29:27.692Z,18.40
2024-03-08T15:31:55.398Z,19.35
2024-03-08T15:34:26.334Z,19.23
2024-03-08T15:39:25.378Z,17.90
2024-03-08T15:41:52.493Z,18.02
2024-03-08T15:44:19.269Z,17.80
2024-03-08T15:46:47.198Z,17.58
2024-03-08T15:49:15.264Z,17.42
2024-03-08T15:51:42.277Z,18.25
2024-03-08T15:54:09.041Z,17.60
2024-03-08T15:56:35.816Z,18.63
2024-03-08T15:59:07.602Z,18.95
2024-03-08T16:01:34.908Z,18.25
2024-03-08T16:04:01.875Z,18.98
2024-03-08T16:06:29.089Z,17.45
2024-03-08T16:08:55.770Z,18.42
2024-03-08T16:11:23.575Z,17.00
2024-03-08T16:13:50.653Z,16.83
2024-03-08T16:16:18.131Z,18.65
2024-03-08T16:18:45.080Z,17.30
2024-03-08T16:21:13.211Z,16.63
2024-03-08T16:23:40.048Z,17.13
2024-03-08T16:26:07.704Z,16.45
2024-03-08T16:28:41.184Z,16.50
2024-03-08T16:31:09.118Z,15.93
2024-03-08T16:33:36.205Z,16.65
2024-03-08T16:36:04.290Z,15.85
2024-03-08T16:38:33.139Z,16.33
2024-03-08T16:41:02.193Z,16.87
2024-03-08T16:43:29.269Z,16.90
2024-03-08T16:45:57.273Z,17.83
2024-03-08T16:48:25.414Z,17.13
2024-03-08T16:50:55.486Z,16.88
2024-03-08T16:53:22.395Z,17.30
2024-03-08T16:55:51.386Z,18.25
2024-03-08T16:58:19.210Z,17.40
2024-03-08T17:00:46.394Z,17.40
2024-03-08T17:03:13.693Z,17.00
2024-03-08T17:05:45.887Z,17.60
2024-03-08T17:08:12.886Z,16.85
2024-03-08T17:10:41.459Z,18.08
2024-03-08T17:13:09.170Z,19.08
2024-03-08T17:15:37.054Z,17.60
2024-03-08T17:18:09.367Z,18.15
2024-03-08T17:20:37.924Z,18.85
2024-03-08T17:23:09.215Z,18.63
2024-03-08T17:25:39.439Z,19.75
2024-03-08T17:28:08.172Z,19.23
2024-03-08T17:30:39.034Z,18.45
2024-03-08T17:35:39.689Z,18.85
2024-03-08T17:38:11.253Z,19.75
2024-03-08T17:40:43.994Z,18.75
2024-03-08T17:43:12.598Z,18.42
2024-03-08T17:45:43.510Z,18.63
2024-03-08T17:48:14.487Z,18.80
2024-03-08T17:50:45.113Z,19.85
2024-03-08T17:53:12.960Z,19.85
2024-03-08T17:55:42.779Z,19.67
2024-03-08T17:58:11.508Z,20.97
2024-03-08T18:00:40.579Z,20.45
2024-03-08T18:03:09.812Z,20.05
2024-03-08T18:05:42.775Z,20.73
2024-03-08T18:08:10.221Z,20.73
2024-03-08T18:10:37.315Z,20.10
2024-03-08T18:13:15.105Z,20.73
2024-03-08T18:15:46.966Z,19.50
2024-03-08T18:18:14.073Z,19.63
2024-03-08T18:20:51.593Z,18.80
2024-03-08T18:23:22.711Z,20.70
2024-03-08T18:25:51.613Z,19.13
2024-03-08T18:28:19.378Z,20.08
2024-03-08T18:30:49.736Z,20.10
2024-03-08T18:33:16.970Z,19.73
2024-03-08T18:35:45.186Z,19.77
2024-03-08T18:38:12.577Z,19.35
2024-03-08T18:40:46.290Z,19.20
2024-03-08T18:43:13.998Z,19.30
2024-03-08T18:45:42.793Z,19.15
2024-03-08T18:48:12.378Z,19.20
2024-03-08T18:50:39.991Z,19.48
2024-03-08T18:53:08.135Z,19.80
2024-03-08T18:55:36.126Z,21.23
2024-03-08T18:58:03.446Z,19.65
2024-03-08T19:00:31.464Z,20.13
2024-03-08T19:03:01.031Z,19.17
2024-03-08T19:05:29.186Z,19.90
2024-03-08T19:07:57.084Z,19.00
2024-03-08T19:10:26.012Z,19.80
2024-03-08T19:12:54.327Z,21.40
2024-03-08T19:15:22.851Z,20.75
2024-03-08T19:17:51.999Z,20.13
2024-03-08T19:20:24.786Z,20.88
2024-03-08T19:22:54.901Z,20.15
2024-03-08T19:25:28.416Z,21.33
2024-03-08T19:28:06.295Z,23.20
2024-03-08T19:30:37.296Z,20.65
2024-03-08T19:33:09.346Z,19.75
2024-03-08T19:35:36.843Z,21.23
2024-03-08T19:38:04.825Z,20.20
2024-03-08T19:40:36.284Z,21.23
2024-03-08T19:43:06.377Z,20.63
2024-03-08T19:45:33.847Z,20.88
2024-03-08T19:48:02.261Z,20.33
2024-03-08T19:50:30.445Z,19.45
2024-03-08T19:53:05.298Z,21.13
2024-03-08T19:55:36.258Z,20.65
2024-03-08T20:00:32.813Z,20.02
2024-03-08T20:03:03.892Z,20.88
2024-03-08T20:05:32.380Z,20.58
2024-03-08T20:08:05.340Z,19.33
2024-03-08T20:10:33.251Z,19.70
2024-03-08T20:13:00.168Z,21.27
2024-03-08T20:15:27.051Z,20.40
2024-03-08T20:17:55.589Z,20.27
2024-03-08T20:20:23.293Z,20.45
2024-03-08T20:22:53.805Z,19.23
2024-03-08T20:25:22.666Z,20.23
2024-03-08T20:27:57.353Z,19.50
2024-03-08T20:30:30.798Z,19.17
2024-03-08T20:33:04.960Z,18.65
2024-03-08T20:35:35.097Z,20.63
2024-03-08T20:38:06.975Z,20.05
2024-03-08T20:40:45.498Z,18.77
2024-03-08T20:43:15.403Z,20.05
2024-03-08T20:45:43.054Z,20.75
2024-03-08T20:48:10.246Z,19.85
2024-03-08T20:50:41.364Z,20.67
2024-03-08T20:55:39.631Z,19.88
2024-03-08T20:58:07.023Z,20.02
2024-03-08T21:00:39.722Z,21.23
2024-03-08T21:03:14.705Z,19.25
2024-03-08T21:05:42.996Z,20.67
2024-03-08T21:08:13.543Z,18.75
2024-03-08T21:10:42.052Z,19.35
2024-03-08T21:13:12.882Z,20.35
2024-03-08T21:15:41.138Z,20.13
2024-03-08T21:18:11.811Z,20.92
2024-03-08T21:20:38.737Z,20.85
2024-03-08T21:23:06.052Z,19.13
2024-03-08T21:25:33.293Z,19.42
2024-03-08T21:28:07.621Z,18.75
2024-03-08T21:30:35.877Z,20.67
2024-03-08T21:33:04.392Z,19.92
2024-03-08T21:35:34.192Z,19.77
2024-03-08T21:38:02.384Z,19.50
2024-03-08T21:40:35.835Z,18.98
2024-03-08T21:43:06.973Z,19.85
2024-03-08T21:45:37.590Z,19.37
2024-03-08T21:48:05.419Z,19.50
2024-03-08T21:50:35.281Z,19.13
2024-03-08T21:53:02.794Z,18.30
2024-03-08T21:55:31.366Z,18.77
2024-03-08T21:58:01.123Z,19.38
2024-03-08T22:00:33.723Z,19.15
2024-03-08T22:03:04.179Z,18.08
2024-03-08T22:05:31.983Z,19.63
2024-03-08T22:07:58.978Z,20.05
2024-03-08T22:10:27.955Z,18.67
2024-03-08T22:12:58.825Z,18.92
2024-03-08T22:15:26.076Z,18.58
2024-03-08T22:17:55.152Z,18.48
2024-03-08T22:20:22.833Z,19.23
2024-03-08T22:22:52.592Z,19.33
2024-03-08T22:25:20.798Z,15.73
2024-03-08T22:27:48.295Z,18.20
2024-03-08T22:30:22.012Z,18.90
2024-03-08T22:32:49.831Z,19.10
2024-03-08T22:35:17.474Z,20.70
2024-03-08T22:37:44.658Z,18.30
2024-03-08T22:40:12.302Z,18.67
2024-03-08T22:42:39.700Z,19.42
2024-03-08T22:45:07.963Z,20.15
2024-03-08T22:47:34.707Z,19.35
2024-03-08T22:50:01.564Z,19.33
2024-03-08T22:52:28.404Z,19.10
2024-03-08T22:54:55.170Z,18.80
2024-03-08T22:57:21.904Z,20.08
2024-03-08T22:59:50.581Z,18.08
2024-03-08T23:02:19.256Z,18.90
2024-03-08T23:04:48.136Z,20.27
2024-03-08T23:07:15.011Z,19.60
2024-03-08T23:09:43.952Z,19.17
2024-03-08T23:12:11.486Z,20.13
2024-03-08T23:14:39.314Z,19.83
2024-03-08T23:17:08.045Z,20.00
2024-03-08T23:19:39.093Z,19.95
2024-03-08T23:22:10.596Z,19.48
2024-03-08T23:24:37.960Z,19.65
2024-03-08T23:27:05.080Z,20.48
2024-03-08T23:29:32.091Z,21.20
2024-03-08T23:31:58.964Z,21.65
2024-03-08T23:34:25.969Z,20.98
2024-03-08T23:36:53.864Z,20.08
2024-03-08T23:39:23.392Z,21.40
2024-03-08T23:41:51.151Z,21.73
2024-03-08T23:44:20.894Z,20.60
2024-03-08T23:46:47.965Z,20.60
2024-03-08T23:49:18.401Z,22.27
2024-03-08T23:51:46.682Z,20.70
2024-03-08T23:54:14.115Z,20.73
2024-03-08T23:56:42.205Z,20.50
2024-03-08T23:59:09.304Z,19.50
